African Highway — 3EOD8 — position and weather

sailwx.info

Track history (hours):
 
Tides and Currents Weather Stations Pressure Air Temp Water Temp Dewpoint Dewpoint Depression Visibility Wind Speed Wind Dir Waves Ship Positions

African Highway

Last reported at 2016-Dec-03 03:22 UTC. Time now 2016-Dec-03 04:41 UTC.
Position N 53°39' E 005°28'.

Length 154.5 m; beam 27.6 m.

Type: Cargo ship. MMSI: 353633000.

Date/timePositionNaut miles runAvg speedWind from/ knotsBaromVisibWave heightAir tempDewpointWater temp
2016-Dec-03 03:22N 53°39' E 005°28'4612.2
2016-Dec-02 23:33N 53°32' E 006°45'1212.3
2016-Dec-02 22:33N 53°22' E 006°58'7 7.2
2016-Dec-02 21:33N 53°20' E 007°10'1 0.6
2016-Dec-02 20:28N 53°20' E 007°11'0 0.0
2016-Dec-02 19:31N 53°20' E 007°11'0 0.0
2016-Dec-02 18:31N 53°20' E 007°11'0 0.0
2016-Dec-02 17:31N 53°20' E 007°11'0 0.0
2016-Dec-02 16:31N 53°20' E 007°11'0 0.0
2016-Dec-02 15:31N 53°20' E 007°11'0 0.0
2016-Dec-02 14:31N 53°20' E 007°11'0 0.0
2016-Dec-02 13:28N 53°20' E 007°11'0 0.0
2016-Dec-02 12:31N 53°20' E 007°11'0 0.0
2016-Dec-02 11:31N 53°20' E 007°11'0 0.0
2016-Dec-02 10:31N 53°20' E 007°11'2 2.6
2016-Dec-02 09:33N 53°20' E 007°07'1010.4
2016-Dec-02 08:33N 53°27' E 006°54'7210.2
2016-Dec-02 01:31N 53°26' E 004°53'22 9.0
2016-Dec-01 23:06N 53°15' E 004°22'29 8.0
2016-Dec-01 19:31N 52°55' E 003°48'2 1.8
2016-Dec-01 18:30N 52°57' E 003°47'30 4.6
2016-Dec-01 12:04N 53°10' E 004°31'713.1
2016-Dec-01 11:33N 53°04' E 004°26'1313.1
2016-Dec-01 10:33N 52°53' E 004°17'1313.1
2016-Dec-01 09:33N 52°42' E 004°03'1313.4
2016-Dec-01 08:33N 52°33' E 003°47'1413.7
2016-Dec-01 07:33N 52°25' E 003°28'1614.7
2016-Dec-01 06:28N 52°22' E 003°03'1314.5
2016-Dec-01 05:33N 52°12' E 002°49'1615.6
2016-Dec-01 04:32N 52°00' E 002°31'1716.3
2016-Dec-01 03:31N 51°49' E 002°11'1616.6
2016-Dec-01 02:33N 51°38' E 001°53'1616.0
2016-Dec-01 01:34N 51°28' E 001°33'1111.1
2016-Dec-01 00:34N 51°29' E 001°15'1312.9
2016-Nov-30 23:34N 51°29' E 000°54'7 6.3
2016-Nov-30 22:31N 51°26' E 000°44'0 0.0
2016-Nov-30 21:31N 51°26' E 000°44'0 0.0
2016-Nov-30 20:31N 51°26' E 000°44'0 0.0
2016-Nov-30 19:31N 51°26' E 000°44'0 0.0
2016-Nov-30 18:31N 51°26' E 000°44'0 0.0
2016-Nov-30 17:28N 51°26' E 000°44'0 0.0
2016-Nov-30 16:31N 51°26' E 000°44'0 0.0
2016-Nov-30 15:31N 51°26' E 000°44'0 0.0
2016-Nov-30 14:31N 51°26' E 000°44'2 2.3
2016-Nov-30 13:33N 51°28' E 000°47'9 9.4
2016-Nov-30 12:33N 51°30' E 001°02'1211.8
2016-Nov-30 11:33N 51°29' E 001°21'7 6.8
2016-Nov-30 10:33N 51°26' E 001°31'1 0.7
2016-Nov-30 09:33N 51°26' E 001°32'1212.3
2016-Nov-30 08:33N 51°34' E 001°46'1615.8
2016-Nov-30 07:34N 51°44' E 002°06'1615.5
2016-Nov-30 06:30N 51°56' E 002°25'1414.5
2016-Nov-30 05:34N 52°06' E 002°39'2913.8
2016-Nov-30 03:28N 52°25' E 003°14'1313.2
2016-Nov-30 02:30N 52°35' E 003°28'1913.5
2016-Nov-30 01:06N 52°50' E 003°46'2714.4
2016-Nov-29 23:14N 53°07' E 004°21'1714.7
2016-Nov-29 22:07N 53°22' E 004°34'2113.4
2016-Nov-29 20:33N 53°34' E 005°02'1313.1
2016-Nov-29 19:34N 53°39' E 005°23'1312.8
2016-Nov-29 18:33N 53°42' E 005°44'10 9.9
2016-Nov-29 17:33N 53°40' E 005°60'1212.4
2016-Nov-29 16:33N 53°38' E 006°21'1211.8
2016-Nov-29 15:33N 53°34' E 006°40'1515.3
2016-Nov-29 14:33N 53°23' E 006°58'8 7.9
2016-Nov-29 13:31N 53°20' E 007°11'0 0.0
2016-Nov-29 12:33N 53°20' E 007°11'0 0.0
2016-Nov-29 11:28N 53°20' E 007°11'0 0.0
2016-Nov-29 10:31N 53°20' E 007°11'0 0.0
2016-Nov-29 09:31N 53°20' E 007°11'0 0.0
2016-Nov-29 08:31N 53°20' E 007°11'0 0.0
2016-Nov-29 07:31N 53°20' E 007°11'0 0.0
2016-Nov-29 06:31N 53°20' E 007°11'0 0.0
2016-Nov-29 05:31N 53°20' E 007°11'0 0.0
2016-Nov-29 04:31N 53°20' E 007°11'0 0.0
2016-Nov-29 03:28N 53°20' E 007°11'0 0.0
2016-Nov-29 02:28N 53°20' E 007°11'0 0.0
2016-Nov-29 01:31N 53°20' E 007°11'2 1.9
2016-Nov-29 00:33N 53°20' E 007°08'7 7.2
2016-Nov-28 23:33N 53°24' E 006°57'1313.2
2016-Nov-28 22:33N 53°33' E 006°42'1313.0
2016-Nov-28 21:33N 53°37' E 006°21'5 4.9
2016-Nov-28 20:32N 53°39' E 006°13'7 7.1
2016-Nov-28 19:33N 53°38' E 006°01'1211.8
2016-Nov-28 18:33N 53°48' E 005°49'1515.4
2016-Nov-28 17:33N 53°53' E 005°25'1515.0
2016-Nov-28 16:33N 53°57' E 005°00'1514.4
2016-Nov-28 15:33N 53°60' E 004°36'15514.1
2016-Nov-28 04:32N 53°32' E 000°18'8 8.6
2016-Nov-28 03:33N 53°34' E 000°05'5 5.1
2016-Nov-28 02:32N 53°35' W 000°04'0 0.0
2016-Nov-28 01:32N 53°35' W 000°04'0 0.0
2016-Nov-28 00:32N 53°35' W 000°04'0 0.0
2016-Nov-27 23:29N 53°35' W 000°04'0 0.0
2016-Nov-27 22:32N 53°35' W 000°04'0 0.0
2016-Nov-27 21:32N 53°35' W 000°04'0 0.0
2016-Nov-27 20:32N 53°35' W 000°04'0 0.0
2016-Nov-27 19:32N 53°35' W 000°04'0 0.0
2016-Nov-27 18:32N 53°35' W 000°04'0 0.0
2016-Nov-27 17:32N 53°35' W 000°04'0 0.0
2016-Nov-27 16:32N 53°35' W 000°04'0 0.0
2016-Nov-27 15:32N 53°35' W 000°04'0 0.0
2016-Nov-27 14:32N 53°35' W 000°04'0 0.0
2016-Nov-27 13:32N 53°35' W 000°04'0 0.0
2016-Nov-27 12:29N 53°35' W 000°04'0 0.0
2016-Nov-27 11:32N 53°35' W 000°04'0 0.0
2016-Nov-27 10:32N 53°35' W 000°04'0 0.0
2016-Nov-27 09:29N 53°35' W 000°04'0 0.0
2016-Nov-27 08:32N 53°35' W 000°04'0 0.0
2016-Nov-27 07:32N 53°35' W 000°04'0 0.0
2016-Nov-27 06:32N 53°35' W 000°04'0 0.0
2016-Nov-27 05:32N 53°35' W 000°04'0 0.0
2016-Nov-27 04:32N 53°35' W 000°04'0 0.2
2016-Nov-27 03:33N 53°35' W 000°04'8 7.6
2016-Nov-27 02:33N 53°33' E 000°09'7 7.4
2016-Nov-27 01:32N 53°33' E 000°21'49 9.6
2016-Nov-26 20:30N 53°41' E 001°42'4 4.1
2016-Nov-26 19:32N 53°42' E 001°49'5 1.7
2016-Nov-26 16:24N 53°47' E 001°47'2 1.7
2016-Nov-26 15:29N 53°48' E 001°46'1 1.5
2016-Nov-26 14:33N 53°50' E 001°45'1 1.2
2016-Nov-26 13:33N 53°50' E 001°47'1110.6
2016-Nov-26 12:33N 53°51' E 002°05'1414.3
2016-Nov-26 11:33N 53°51' E 002°29'1714.8
2016-Nov-26 10:22N 53°55' E 002°58'1814.7
2016-Nov-26 09:08N 53°58' E 003°29'2414.4
2016-Nov-26 07:29N 54°01' E 004°08'2713.9
2016-Nov-26 05:33N 54°04' E 004°54'1413.8
2016-Nov-26 04:33N 54°06' E 005°17'1110.7
2016-Nov-26 03:33N 54°03' E 005°34'1414.1
2016-Nov-26 02:33N 53°53' E 005°52'1414.3
2016-Nov-26 01:33N 53°44' E 006°11'1312.6
2016-Nov-26 00:34N 53°37' E 006°28'1414.2
2016-Nov-25 23:33N 53°30' E 006°49'1313.2
2016-Nov-25 22:34N 53°19' E 007°03'4 4.3
2016-Nov-25 21:31N 53°20' E 007°10'0 0.0
2016-Nov-25 20:31N 53°20' E 007°10'0 0.0
2016-Nov-25 19:31N 53°20' E 007°10'0 0.0
2016-Nov-25 18:31N 53°20' E 007°10'0 0.0
2016-Nov-25 17:28N 53°20' E 007°10'0 0.0
2016-Nov-25 16:25N 53°20' E 007°10'0 0.0
2016-Nov-25 14:31N 53°20' E 007°10'0 0.0
2016-Nov-25 13:31N 53°20' E 007°10'2 2.1
2016-Nov-25 12:33N 53°20' E 007°07'7 6.8
2016-Nov-25 11:33N 53°24' E 006°57'9 9.5
2016-Nov-25 10:33N 53°31' E 006°47'1212.2
2016-Nov-25 09:33N 53°37' E 006°29'8 7.8
2016-Nov-25 08:33N 53°38' E 006°16'1414.0
2016-Nov-25 07:33N 53°37' E 005°53'1514.5
2016-Nov-25 06:34N 53°33' E 005°29'1414.4
2016-Nov-25 05:33N 53°29' E 005°05'1414.2
2016-Nov-25 04:33N 53°24' E 004°43'1414.3
2016-Nov-25 03:33N 53°11' E 004°33'1414.4
2016-Nov-25 02:33N 52°59' E 004°20'1514.5
2016-Nov-25 01:33N 52°46' E 004°08'1414.2
2016-Nov-25 00:33N 52°38' E 003°49'1514.2
2016-Nov-24 23:32N 52°28' E 003°31'1313.7
2016-Nov-24 22:33N 52°24' E 003°10'1313.2
2016-Nov-24 21:33N 52°16' E 002°52'1913.0
2016-Nov-24 20:05N 52°01' E 002°33'712.4
2016-Nov-24 19:33N 51°56' E 002°25'1212.0
2016-Nov-24 18:32N 51°49' E 002°10'1111.4
2016-Nov-24 17:33N 51°40' E 001°58'1111.3
2016-Nov-24 16:33N 51°34' E 001°44'1111.2
2016-Nov-24 15:33N 51°28' E 001°28'1312.6
2016-Nov-24 14:33N 51°29' E 001°08'1212.2
2016-Nov-24 13:34N 51°28' E 000°48'3 2.9
2016-Nov-24 12:31N 51°26' E 000°44'0 0.0
2016-Nov-24 11:31N 51°26' E 000°44'0 0.0
2016-Nov-24 10:31N 51°26' E 000°44'0 0.0
2016-Nov-24 09:28N 51°26' E 000°44'0 0.0
2016-Nov-24 08:31N 51°26' E 000°44'0 0.0
2016-Nov-24 07:31N 51°26' E 000°44'0 0.0
2016-Nov-24 06:31N 51°26' E 000°44'0 0.0
2016-Nov-24 05:31N 51°26' E 000°44'0 0.0
2016-Nov-24 04:31N 51°26' E 000°44'0 0.0
2016-Nov-24 03:31N 51°26' E 000°44'0 0.0
2016-Nov-24 02:31N 51°26' E 000°44'0 0.0
2016-Nov-24 01:31N 51°26' E 000°44'0 0.0
2016-Nov-24 00:31N 51°26' E 000°44'0 0.0
2016-Nov-23 23:31N 51°26' E 000°44'0 0.0
2016-Nov-23 22:31N 51°26' E 000°44'0 0.0
2016-Nov-23 21:31N 51°26' E 000°44'0 0.0
2016-Nov-23 20:31N 51°26' E 000°44'1 1.5
2016-Nov-23 19:33N 51°27' E 000°46'1413.6
2016-Nov-23 18:33N 51°29' E 001°07'1414.4
2016-Nov-23 17:33N 51°26' E 001°30'1211.7
2016-Nov-23 16:34N 51°33' E 001°44'1615.8
2016-Nov-23 15:34N 51°43' E 002°03'8914.6
2016-Nov-23 09:29N 52°48' E 003°43'1314.0
2016-Nov-23 08:33N 52°57' E 003°58'1614.8
2016-Nov-23 07:28N 53°08' E 004°17'1415.0
2016-Nov-23 06:33N 53°19' E 004°30'4113.7
2016-Nov-23 03:33N 53°40' E 005°30'  
Track history (hours):
 
Tides and Currents Weather Stations Pressure Air Temp Water Temp Dewpoint Dewpoint Depression Visibility Wind Speed Wind Dir Waves Ship Positions

African Highway

Last reported at 2016-Dec-03 03:22 UTC. Time now 2016-Dec-03 04:41 UTC.
Position N 53°39' E 005°28'.

Length 154.5 m; beam 27.6 m.

Type: Cargo ship. MMSI: 353633000.

Date/timePositionNaut miles runAvg speedWind from/ knotsBaromVisibWave heightAir tempDewpointWater temp
2016-Dec-03 03:22N 53°39' E 005°28'4612.2
2016-Dec-02 23:33N 53°32' E 006°45'1212.3
2016-Dec-02 22:33N 53°22' E 006°58'7 7.2
2016-Dec-02 21:33N 53°20' E 007°10'1 0.6
2016-Dec-02 20:28N 53°20' E 007°11'0 0.0
2016-Dec-02 19:31N 53°20' E 007°11'0 0.0
2016-Dec-02 18:31N 53°20' E 007°11'0 0.0
2016-Dec-02 17:31N 53°20' E 007°11'0 0.0
2016-Dec-02 16:31N 53°20' E 007°11'0 0.0
2016-Dec-02 15:31N 53°20' E 007°11'0 0.0
2016-Dec-02 14:31N 53°20' E 007°11'0 0.0
2016-Dec-02 13:28N 53°20' E 007°11'0 0.0
2016-Dec-02 12:31N 53°20' E 007°11'0 0.0
2016-Dec-02 11:31N 53°20' E 007°11'0 0.0
2016-Dec-02 10:31N 53°20' E 007°11'2 2.6
2016-Dec-02 09:33N 53°20' E 007°07'1010.4
2016-Dec-02 08:33N 53°27' E 006°54'7210.2
2016-Dec-02 01:31N 53°26' E 004°53'22 9.0
2016-Dec-01 23:06N 53°15' E 004°22'29 8.0
2016-Dec-01 19:31N 52°55' E 003°48'2 1.8
2016-Dec-01 18:30N 52°57' E 003°47'30 4.6
2016-Dec-01 12:04N 53°10' E 004°31'713.1
2016-Dec-01 11:33N 53°04' E 004°26'1313.1
2016-Dec-01 10:33N 52°53' E 004°17'1313.1
2016-Dec-01 09:33N 52°42' E 004°03'1313.4
2016-Dec-01 08:33N 52°33' E 003°47'1413.7
2016-Dec-01 07:33N 52°25' E 003°28'1614.7
2016-Dec-01 06:28N 52°22' E 003°03'1314.5
2016-Dec-01 05:33N 52°12' E 002°49'1615.6
2016-Dec-01 04:32N 52°00' E 002°31'1716.3
2016-Dec-01 03:31N 51°49' E 002°11'1616.6
2016-Dec-01 02:33N 51°38' E 001°53'1616.0
2016-Dec-01 01:34N 51°28' E 001°33'1111.1
2016-Dec-01 00:34N 51°29' E 001°15'1312.9
2016-Nov-30 23:34N 51°29' E 000°54'7 6.3
2016-Nov-30 22:31N 51°26' E 000°44'0 0.0
2016-Nov-30 21:31N 51°26' E 000°44'0 0.0
2016-Nov-30 20:31N 51°26' E 000°44'0 0.0
2016-Nov-30 19:31N 51°26' E 000°44'0 0.0
2016-Nov-30 18:31N 51°26' E 000°44'0 0.0
2016-Nov-30 17:28N 51°26' E 000°44'0 0.0
2016-Nov-30 16:31N 51°26' E 000°44'0 0.0
2016-Nov-30 15:31N 51°26' E 000°44'0 0.0
2016-Nov-30 14:31N 51°26' E 000°44'2 2.3
2016-Nov-30 13:33N 51°28' E 000°47'9 9.4
2016-Nov-30 12:33N 51°30' E 001°02'1211.8
2016-Nov-30 11:33N 51°29' E 001°21'7 6.8
2016-Nov-30 10:33N 51°26' E 001°31'1 0.7
2016-Nov-30 09:33N 51°26' E 001°32'1212.3
2016-Nov-30 08:33N 51°34' E 001°46'1615.8
2016-Nov-30 07:34N 51°44' E 002°06'1615.5
2016-Nov-30 06:30N 51°56' E 002°25'1414.5
2016-Nov-30 05:34N 52°06' E 002°39'2913.8
2016-Nov-30 03:28N 52°25' E 003°14'1313.2
2016-Nov-30 02:30N 52°35' E 003°28'1913.5
2016-Nov-30 01:06N 52°50' E 003°46'2714.4
2016-Nov-29 23:14N 53°07' E 004°21'1714.7
2016-Nov-29 22:07N 53°22' E 004°34'2113.4
2016-Nov-29 20:33N 53°34' E 005°02'1313.1
2016-Nov-29 19:34N 53°39' E 005°23'1312.8
2016-Nov-29 18:33N 53°42' E 005°44'10 9.9
2016-Nov-29 17:33N 53°40' E 005°60'1212.4
2016-Nov-29 16:33N 53°38' E 006°21'1211.8
2016-Nov-29 15:33N 53°34' E 006°40'1515.3
2016-Nov-29 14:33N 53°23' E 006°58'8 7.9
2016-Nov-29 13:31N 53°20' E 007°11'0 0.0
2016-Nov-29 12:33N 53°20' E 007°11'0 0.0
2016-Nov-29 11:28N 53°20' E 007°11'0 0.0
2016-Nov-29 10:31N 53°20' E 007°11'0 0.0
2016-Nov-29 09:31N 53°20' E 007°11'0 0.0
2016-Nov-29 08:31N 53°20' E 007°11'0 0.0
2016-Nov-29 07:31N 53°20' E 007°11'0 0.0
2016-Nov-29 06:31N 53°20' E 007°11'0 0.0
2016-Nov-29 05:31N 53°20' E 007°11'0 0.0
2016-Nov-29 04:31N 53°20' E 007°11'0 0.0
2016-Nov-29 03:28N 53°20' E 007°11'0 0.0
2016-Nov-29 02:28N 53°20' E 007°11'0 0.0
2016-Nov-29 01:31N 53°20' E 007°11'2 1.9
2016-Nov-29 00:33N 53°20' E 007°08'7 7.2
2016-Nov-28 23:33N 53°24' E 006°57'1313.2
2016-Nov-28 22:33N 53°33' E 006°42'1313.0
2016-Nov-28 21:33N 53°37' E 006°21'5 4.9
2016-Nov-28 20:32N 53°39' E 006°13'7 7.1
2016-Nov-28 19:33N 53°38' E 006°01'1211.8
2016-Nov-28 18:33N 53°48' E 005°49'1515.4
2016-Nov-28 17:33N 53°53' E 005°25'1515.0
2016-Nov-28 16:33N 53°57' E 005°00'1514.4
2016-Nov-28 15:33N 53°60' E 004°36'15514.1
2016-Nov-28 04:32N 53°32' E 000°18'8 8.6
2016-Nov-28 03:33N 53°34' E 000°05'5 5.1
2016-Nov-28 02:32N 53°35' W 000°04'0 0.0
2016-Nov-28 01:32N 53°35' W 000°04'0 0.0
2016-Nov-28 00:32N 53°35' W 000°04'0 0.0
2016-Nov-27 23:29N 53°35' W 000°04'0 0.0
2016-Nov-27 22:32N 53°35' W 000°04'0 0.0
2016-Nov-27 21:32N 53°35' W 000°04'0 0.0
2016-Nov-27 20:32N 53°35' W 000°04'0 0.0
2016-Nov-27 19:32N 53°35' W 000°04'0 0.0
2016-Nov-27 18:32N 53°35' W 000°04'0 0.0
2016-Nov-27 17:32N 53°35' W 000°04'0 0.0
2016-Nov-27 16:32N 53°35' W 000°04'0 0.0
2016-Nov-27 15:32N 53°35' W 000°04'0 0.0
2016-Nov-27 14:32N 53°35' W 000°04'0 0.0
2016-Nov-27 13:32N 53°35' W 000°04'0 0.0
2016-Nov-27 12:29N 53°35' W 000°04'0 0.0
2016-Nov-27 11:32N 53°35' W 000°04'0 0.0
2016-Nov-27 10:32N 53°35' W 000°04'0 0.0
2016-Nov-27 09:29N 53°35' W 000°04'0 0.0
2016-Nov-27 08:32N 53°35' W 000°04'0 0.0
2016-Nov-27 07:32N 53°35' W 000°04'0 0.0
2016-Nov-27 06:32N 53°35' W 000°04'0 0.0
2016-Nov-27 05:32N 53°35' W 000°04'0 0.0
2016-Nov-27 04:32N 53°35' W 000°04'0 0.2
2016-Nov-27 03:33N 53°35' W 000°04'8 7.6
2016-Nov-27 02:33N 53°33' E 000°09'7 7.4
2016-Nov-27 01:32N 53°33' E 000°21'49 9.6
2016-Nov-26 20:30N 53°41' E 001°42'4 4.1
2016-Nov-26 19:32N 53°42' E 001°49'5 1.7
2016-Nov-26 16:24N 53°47' E 001°47'2 1.7
2016-Nov-26 15:29N 53°48' E 001°46'1 1.5
2016-Nov-26 14:33N 53°50' E 001°45'1 1.2
2016-Nov-26 13:33N 53°50' E 001°47'1110.6
2016-Nov-26 12:33N 53°51' E 002°05'1414.3
2016-Nov-26 11:33N 53°51' E 002°29'1714.8
2016-Nov-26 10:22N 53°55' E 002°58'1814.7
2016-Nov-26 09:08N 53°58' E 003°29'2414.4
2016-Nov-26 07:29N 54°01' E 004°08'2713.9
2016-Nov-26 05:33N 54°04' E 004°54'1413.8
2016-Nov-26 04:33N 54°06' E 005°17'1110.7
2016-Nov-26 03:33N 54°03' E 005°34'1414.1
2016-Nov-26 02:33N 53°53' E 005°52'1414.3
2016-Nov-26 01:33N 53°44' E 006°11'1312.6
2016-Nov-26 00:34N 53°37' E 006°28'1414.2
2016-Nov-25 23:33N 53°30' E 006°49'1313.2
2016-Nov-25 22:34N 53°19' E 007°03'4 4.3
2016-Nov-25 21:31N 53°20' E 007°10'0 0.0
2016-Nov-25 20:31N 53°20' E 007°10'0 0.0
2016-Nov-25 19:31N 53°20' E 007°10'0 0.0
2016-Nov-25 18:31N 53°20' E 007°10'0 0.0
2016-Nov-25 17:28N 53°20' E 007°10'0 0.0
2016-Nov-25 16:25N 53°20' E 007°10'0 0.0
2016-Nov-25 14:31N 53°20' E 007°10'0 0.0
2016-Nov-25 13:31N 53°20' E 007°10'2 2.1
2016-Nov-25 12:33N 53°20' E 007°07'7 6.8
2016-Nov-25 11:33N 53°24' E 006°57'9 9.5
2016-Nov-25 10:33N 53°31' E 006°47'1212.2
2016-Nov-25 09:33N 53°37' E 006°29'8 7.8
2016-Nov-25 08:33N 53°38' E 006°16'1414.0
2016-Nov-25 07:33N 53°37' E 005°53'1514.5
2016-Nov-25 06:34N 53°33' E 005°29'1414.4
2016-Nov-25 05:33N 53°29' E 005°05'1414.2
2016-Nov-25 04:33N 53°24' E 004°43'1414.3
2016-Nov-25 03:33N 53°11' E 004°33'1414.4
2016-Nov-25 02:33N 52°59' E 004°20'1514.5
2016-Nov-25 01:33N 52°46' E 004°08'1414.2
2016-Nov-25 00:33N 52°38' E 003°49'1514.2
2016-Nov-24 23:32N 52°28' E 003°31'1313.7
2016-Nov-24 22:33N 52°24' E 003°10'1313.2
2016-Nov-24 21:33N 52°16' E 002°52'1913.0
2016-Nov-24 20:05N 52°01' E 002°33'712.4
2016-Nov-24 19:33N 51°56' E 002°25'1212.0
2016-Nov-24 18:32N 51°49' E 002°10'1111.4
2016-Nov-24 17:33N 51°40' E 001°58'1111.3
2016-Nov-24 16:33N 51°34' E 001°44'1111.2
2016-Nov-24 15:33N 51°28' E 001°28'1312.6
2016-Nov-24 14:33N 51°29' E 001°08'1212.2
2016-Nov-24 13:34N 51°28' E 000°48'3 2.9
2016-Nov-24 12:31N 51°26' E 000°44'0 0.0
2016-Nov-24 11:31N 51°26' E 000°44'0 0.0
2016-Nov-24 10:31N 51°26' E 000°44'0 0.0
2016-Nov-24 09:28N 51°26' E 000°44'0 0.0
2016-Nov-24 08:31N 51°26' E 000°44'0 0.0
2016-Nov-24 07:31N 51°26' E 000°44'0 0.0
2016-Nov-24 06:31N 51°26' E 000°44'0 0.0
2016-Nov-24 05:31N 51°26' E 000°44'0 0.0
2016-Nov-24 04:31N 51°26' E 000°44'0 0.0
2016-Nov-24 03:31N 51°26' E 000°44'0 0.0
2016-Nov-24 02:31N 51°26' E 000°44'0 0.0
2016-Nov-24 01:31N 51°26' E 000°44'0 0.0
2016-Nov-24 00:31N 51°26' E 000°44'0 0.0
2016-Nov-23 23:31N 51°26' E 000°44'0 0.0
2016-Nov-23 22:31N 51°26' E 000°44'0 0.0
2016-Nov-23 21:31N 51°26' E 000°44'0 0.0
2016-Nov-23 20:31N 51°26' E 000°44'1 1.5
2016-Nov-23 19:33N 51°27' E 000°46'1413.6
2016-Nov-23 18:33N 51°29' E 001°07'1414.4
2016-Nov-23 17:33N 51°26' E 001°30'1211.7
2016-Nov-23 16:34N 51°33' E 001°44'1615.8
2016-Nov-23 15:34N 51°43' E 002°03'8914.6
2016-Nov-23 09:29N 52°48' E 003°43'1314.0
2016-Nov-23 08:33N 52°57' E 003°58'1614.8
2016-Nov-23 07:28N 53°08' E 004°17'1415.0
2016-Nov-23 06:33N 53°19' E 004°30'4113.7
2016-Nov-23 03:33N 53°40' E 005°30'  

Dump ship's entire track history